Time;durP1;ratioP1;P1;durP2;ratioP2;P2;SDS_P1;SDS_P2;PMS_P1;PMS_P2;Temp;Humidity;BMP_temperature;BMP_pressure;BME280_temperature;BME280_humidity;BME280_pressure;Samples;Min_cycle;Max_cycle;Signal;HPM_P1;HPM_P2
2023/05/03 00:00:20;;;;;;;9.93;4.50;;;9.80;99.90;;;;;;7289704;19;20209;-79
2023/05/03 00:02:45;;;;;;;15.27;4.57;;;9.90;99.90;;;;;;7296814;19;20655;-79
2023/05/03 00:05:13;;;;;;;10.10;3.90;;;9.90;99.90;;;;;;7309117;19;20188;-79
2023/05/03 00:07:42;;;;;;;14.00;4.53;;;9.90;99.90;;;;;;7285407;19;20240;-79
2023/05/03 00:10:12;;;;;;;15.63;4.73;;;9.60;99.90;;;;;;7286800;19;20185;-79
2023/05/03 00:12:39;;;;;;;12.47;4.30;;;9.60;99.90;;;;;;7288611;19;20219;-79
2023/05/03 00:15:06;;;;;;;13.07;4.10;;;9.60;99.90;;;;;;7286638;19;20213;-79
2023/05/03 00:17:32;;;;;;;16.20;4.93;;;9.50;99.90;;;;;;7286262;19;20189;-79
2023/05/03 00:19:58;;;;;;;15.87;5.10;;;9.30;99.90;;;;;;7285361;19;20212;-79
2023/05/03 00:22:24;;;;;;;17.10;4.87;;;9.20;99.90;;;;;;7287255;19;20189;-79
2023/05/03 00:24:50;;;;;;;13.77;4.87;;;9.10;99.90;;;;;;7287035;19;20200;-79
2023/05/03 00:27:16;;;;;;;15.47;4.50;;;9.00;99.90;;;;;;7293906;19;20189;-79
2023/05/03 00:29:42;;;;;;;13.03;4.37;;;8.90;99.90;;;;;;7307366;19;20200;-79
2023/05/03 00:32:09;;;;;;;10.77;4.50;;;8.80;99.90;;;;;;7287593;19;20188;-79
2023/05/03 00:34:38;;;;;;;17.57;5.10;;;8.50;99.90;;;;;;7283836;19;20195;-79
2023/05/03 00:37:04;;;;;;;11.90;4.73;;;8.50;99.90;;;;;;7284532;19;25409;-79
2023/05/03 00:39:31;;;;;;;13.47;4.67;;;8.50;99.90;;;;;;7283865;19;20189;-79
2023/05/03 00:41:58;;;;;;;14.83;5.17;;;8.20;99.90;;;;;;7284578;19;20196;-78
2023/05/03 00:44:24;;;;;;;12.27;4.43;;;8.30;99.90;;;;;;7285736;19;20691;-79
2023/05/03 00:46:50;;;;;;;14.40;4.73;;;8.40;99.90;;;;;;7284367;19;20204;-79
2023/05/03 00:49:16;;;;;;;10.23;4.20;;;8.40;99.90;;;;;;7289442;19;20193;-78
2023/05/03 00:51:42;;;;;;;13.50;4.90;;;8.30;99.90;;;;;;7308286;19;20229;-79
2023/05/03 00:54:09;;;;;;;16.77;4.60;;;8.20;99.90;;;;;;7285971;19;20700;-79
2023/05/03 00:56:36;;;;;;;13.30;4.97;;;8.20;99.90;;;;;;7284310;19;20276;-79
2023/05/03 00:59:02;;;;;;;12.97;4.70;;;8.10;99.90;;;;;;7284916;19;20214;-79
2023/05/03 01:01:29;;;;;;;12.93;5.10;;;8.10;99.90;;;;;;7285810;19;20189;-79
2023/05/03 01:03:55;;;;;;;12.47;4.90;;;8.30;99.90;;;;;;7285575;19;20199;-79
2023/05/03 01:06:36;;;;;;;14.47;4.97;;;8.20;99.90;;;;;;7285620;19;20201;-79
2023/05/03 01:09:20;;;;;;;16.90;4.80;;;8.10;99.90;;;;;;7284193;19;20224;-79
2023/05/03 01:12:05;;;;;;;13.07;4.70;;;8.10;99.90;;;;;;7267261;19;20181;-79
2023/05/03 01:14:42;;;;;;;13.77;4.77;;;8.00;99.90;;;;;;7285876;19;20202;-79
2023/05/03 01:17:11;;;;;;;13.30;4.97;;;7.90;99.90;;;;;;7285727;19;20199;-79
2023/05/03 01:19:47;;;;;;;11.80;4.90;;;7.80;99.90;;;;;;7283799;19;20207;-79
2023/05/03 01:22:26;;;;;;;14.60;5.57;;;7.80;99.90;;;;;;7284939;19;20199;-79
2023/05/03 01:25:10;;;;;;;11.27;4.80;;;7.90;99.90;;;;;;7180598;19;2006034;-79
2023/05/03 01:27:37;;;;;;;12.63;4.90;;;7.90;99.90;;;;;;7284167;19;20565;-79
2023/05/03 01:30:10;;;;;;;14.77;5.43;;;8.00;99.90;;;;;;7284137;19;20203;-79
2023/05/03 01:32:45;;;;;;;14.40;5.07;;;8.10;99.90;;;;;;7284763;19;20526;-79
2023/05/03 01:35:22;;;;;;;11.20;4.40;;;8.20;99.90;;;;;;7285102;19;20215;-79
2023/05/03 01:37:50;;;;;;;13.13;4.63;;;8.10;99.90;;;;;;7262354;19;20660;-78
2023/05/03 01:40:18;;;;;;;10.03;4.87;;;8.10;99.90;;;;;;7295508;19;20274;-78
2023/05/03 01:42:46;;;;;;;12.73;5.47;;;7.80;99.90;;;;;;7311355;19;20535;-79
2023/05/03 01:45:14;;;;;;;12.80;5.57;;;7.70;99.90;;;;;;7291010;19;20196;-79
2023/05/03 01:47:40;;;;;;;14.17;5.17;;;7.70;99.90;;;;;;7290883;19;20193;-79
2023/05/03 01:50:06;;;;;;;12.97;5.43;;;8.00;99.90;;;;;;7289605;19;20256;-79
2023/05/03 01:52:32;;;;;;;14.33;5.10;;;8.00;99.90;;;;;;7290917;19;20273;-79
2023/05/03 01:54:58;;;;;;;12.33;4.77;;;7.80;99.90;;;;;;7290604;19;20255;-79
2023/05/03 01:57:24;;;;;;;14.07;5.07;;;7.70;99.90;;;;;;7290543;19;20646;-79
2023/05/03 01:59:50;;;;;;;11.90;5.37;;;7.90;99.90;;;;;;7290929;19;20219;-78
2023/05/03 02:02:16;;;;;;;17.33;4.83;;;8.10;99.90;;;;;;7296862;19;20301;-78
2023/05/03 02:04:42;;;;;;;14.20;4.90;;;8.10;99.90;;;;;;7311939;19;20263;-79
2023/05/03 02:07:08;;;;;;;13.37;4.90;;;8.10;99.90;;;;;;7290702;19;20229;-79
2023/05/03 02:09:33;;;;;;;11.67;4.70;;;8.00;99.90;;;;;;7288839;19;20192;-79
2023/05/03 02:11:59;;;;;;;13.40;4.87;;;7.90;99.90;;;;;;7290640;19;20592;-79
2023/05/03 02:14:25;;;;;;;9.63;4.97;;;7.80;99.90;;;;;;7290914;19;20196;-78
2023/05/03 02:16:54;;;;;;;13.97;5.37;;;7.90;99.90;;;;;;7288600;19;20215;-79
2023/05/03 02:19:20;;;;;;;16.27;5.53;;;7.80;99.90;;;;;;7289494;19;20533;-78
2023/05/03 02:21:46;;;;;;;11.70;5.10;;;7.60;99.90;;;;;;7296888;19;20740;-79
2023/05/03 02:24:12;;;;;;;13.57;5.30;;;7.50;99.90;;;;;;7311485;19;20192;-79
2023/05/03 02:26:37;;;;;;;12.10;4.80;;;7.50;99.90;;;;;;7289861;19;20190;-79
2023/05/03 02:29:03;;;;;;;10.10;5.10;;;7.30;99.90;;;;;;7289093;19;20200;-79
2023/05/03 02:31:31;;;;;;;13.07;5.13;;;7.20;99.90;;;;;;7289854;19;20197;-79
2023/05/03 02:33:58;;;;;;;12.70;5.13;;;7.30;99.90;;;;;;7290111;19;20753;-78
2023/05/03 02:36:24;;;;;;;12.03;5.37;;;7.30;99.90;;;;;;7289180;19;20645;-78
2023/05/03 02:38:50;;;;;;;16.27;5.47;;;7.50;99.90;;;;;;7290284;19;20198;-79
2023/05/03 02:41:17;;;;;;;11.90;5.13;;;7.60;99.90;;;;;;7289636;19;20191;-77
2023/05/03 02:43:43;;;;;;;14.13;5.27;;;7.50;99.90;;;;;;7309992;19;20212;-78
2023/05/03 02:46:08;;;;;;;12.83;5.40;;;7.50;99.90;;;;;;7287916;19;20196;-78
2023/05/03 02:48:34;;;;;;;12.30;5.50;;;7.60;99.90;;;;;;7289759;19;20759;-79
2023/05/03 02:51:00;;;;;;;13.83;6.03;;;7.70;99.90;;;;;;7288188;19;20232;-79
2023/05/03 02:53:26;;;;;;;13.87;5.17;;;7.70;99.90;;;;;;7289905;19;20187;-79
2023/05/03 02:55:56;;;;;;;12.20;5.23;;;7.70;99.90;;;;;;7287842;19;20732;-79
2023/05/03 02:58:22;;;;;;;12.63;5.13;;;7.70;99.90;;;;;;7288199;19;20654;-79
2023/05/03 03:00:47;;;;;;;13.17;5.50;;;7.70;99.90;;;;;;7288041;19;20180;-79
2023/05/03 03:03:14;;;;;;;12.90;5.50;;;7.70;99.90;;;;;;7309459;19;20192;-79
2023/05/03 03:05:43;;;;;;;12.00;5.30;;;7.80;99.90;;;;;;7288778;19;20192;-78
2023/05/03 03:08:09;;;;;;;14.77;5.53;;;7.80;99.90;;;;;;7289905;19;20193;-78
2023/05/03 03:10:35;;;;;;;13.10;5.73;;;7.80;99.90;;;;;;7289570;19;20611;-78
2023/05/03 03:13:02;;;;;;;13.57;5.43;;;7.70;99.90;;;;;;7288974;19;20199;-78
2023/05/03 03:15:35;;;;;;;16.13;5.80;;;7.60;99.90;;;;;;7289409;19;20208;-78
2023/05/03 03:18:00;;;;;;;11.93;5.90;;;7.50;99.90;;;;;;7290038;19;20205;-78
2023/05/03 03:20:27;;;;;;;13.87;5.60;;;7.50;99.90;;;;;;7288754;19;20256;-79
2023/05/03 03:22:53;;;;;;;11.13;4.73;;;7.40;99.90;;;;;;7287369;19;20226;-79
2023/05/03 03:25:19;;;;;;;14.77;5.57;;;7.40;99.90;;;;;;7285836;19;20640;-79
2023/05/03 03:27:45;;;;;;;15.10;6.17;;;7.40;99.90;;;;;;7305180;19;20189;-78
2023/05/03 03:30:11;;;;;;;15.93;5.77;;;7.40;99.90;;;;;;7303434;19;20209;-79
2023/05/03 03:32:46;;;;;;;15.67;6.20;;;7.40;99.90;;;;;;7270080;19;20184;-79
2023/05/03 03:35:20;;;;;;;15.90;6.83;;;7.40;99.90;;;;;;7288080;19;20527;-79
2023/05/03 03:37:46;;;;;;;11.80;5.70;;;7.40;99.90;;;;;;7295121;19;20195;-79
2023/05/03 03:40:12;;;;;;;12.87;6.20;;;7.50;99.90;;;;;;7308692;19;20219;-79
2023/05/03 03:42:39;;;;;;;16.73;6.17;;;7.50;99.90;;;;;;7286387;19;20181;-79
2023/05/03 03:45:05;;;;;;;13.67;6.10;;;7.50;99.90;;;;;;7286266;19;20198;-80
2023/05/03 03:47:31;;;;;;;12.83;5.90;;;7.40;99.90;;;;;;7286121;19;20192;-79
2023/05/03 03:50:00;;;;;;;16.63;6.17;;;7.40;99.90;;;;;;7285971;19;20681;-79
2023/05/03 03:52:27;;;;;;;15.03;6.30;;;7.40;99.90;;;;;;7286869;19;20199;-79
2023/05/03 03:54:53;;;;;;;11.67;5.57;;;7.50;99.90;;;;;;7286560;19;20186;-80
2023/05/03 03:57:19;;;;;;;14.67;6.30;;;7.40;99.90;;;;;;7286443;19;20280;-80
2023/05/03 03:59:45;;;;;;;13.90;6.93;;;7.30;99.90;;;;;;7303684;19;20181;-78
2023/05/03 04:02:11;;;;;;;17.03;7.70;;;7.20;99.90;;;;;;7299755;19;20299;-80
2023/05/03 04:04:37;;;;;;;16.87;7.30;;;7.20;99.90;;;;;;7285456;19;20192;-80
2023/05/03 04:07:03;;;;;;;14.43;6.80;;;7.20;99.90;;;;;;7287076;19;20220;-79
2023/05/03 04:09:29;;;;;;;18.00;6.77;;;7.20;99.90;;;;;;7292898;19;20188;-79
2023/05/03 04:11:55;;;;;;;15.47;6.90;;;7.10;99.90;;;;;;7286217;19;20188;-79
2023/05/03 04:14:21;;;;;;;15.10;7.37;;;7.10;99.90;;;;;;7287142;19;20283;-79
2023/05/03 04:16:46;;;;;;;16.67;7.10;;;7.10;99.90;;;;;;7291164;19;20191;-79
2023/05/03 04:19:12;;;;;;;17.70;7.13;;;7.20;99.90;;;;;;7309642;19;20178;-80
2023/05/03 04:21:40;;;;;;;15.27;6.43;;;7.20;99.90;;;;;;7288278;19;20214;-79
2023/05/03 04:24:06;;;;;;;14.03;6.83;;;7.30;99.90;;;;;;7284582;19;20537;-79
2023/05/03 04:26:32;;;;;;;12.57;6.27;;;7.40;99.90;;;;;;7289946;19;20275;-80
2023/05/03 04:29:09;;;;;;;20.00;7.07;;;7.40;99.90;;;;;;7285184;19;20178;-79
2023/05/03 04:31:36;;;;;;;15.87;6.97;;;7.50;99.90;;;;;;7286078;19;20205;-79
2023/05/03 04:34:02;;;;;;;15.27;7.13;;;7.60;99.90;;;;;;7288117;19;20187;-79
2023/05/03 04:36:28;;;;;;;15.93;6.70;;;7.60;99.90;;;;;;7285391;19;20180;-79
2023/05/03 04:38:56;;;;;;;15.03;6.53;;;7.80;99.90;;;;;;7287268;19;20227;-79
2023/05/03 04:41:23;;;;;;;17.80;6.77;;;8.10;99.90;;;;;;7285692;19;20196;-79
2023/05/03 04:43:51;;;;;;;11.97;5.90;;;8.60;99.90;;;;;;7285095;19;20189;-79
2023/05/03 04:46:17;;;;;;;11.77;5.77;;;9.10;99.90;;;;;;7287225;19;20581;-79
2023/05/03 04:48:45;;;;;;;10.30;5.70;;;9.60;99.90;;;;;;7307309;19;20196;-80
2023/05/03 04:51:10;;;;;;;14.57;5.97;;;10.20;99.90;;;;;;7285972;19;20289;-80
2023/05/03 04:53:37;;;;;;;13.33;5.67;;;10.70;99.90;;;;;;7285218;19;20577;-79
2023/05/03 04:56:11;;;;;;;13.97;5.67;;;11.20;99.90;;;;;;7285095;19;20273;-80
2023/05/03 04:58:39;;;;;;;12.27;5.27;;;11.70;99.90;;;;;;7282375;19;20201;-80
2023/05/03 05:01:06;;;;;;;13.73;5.63;;;12.30;99.90;;;;;;7285752;19;20222;-80
2023/05/03 05:03:32;;;;;;;12.80;5.63;;;12.80;99.90;;;;;;7284141;19;20571;-80
2023/05/03 05:06:03;;;;;;;12.27;5.17;;;12.90;99.90;;;;;;7285120;19;20216;-80
2023/05/03 05:08:30;;;;;;;12.73;5.37;;;13.10;99.90;;;;;;7285044;19;20242;-80
2023/05/03 05:10:57;;;;;;;14.67;5.47;;;13.60;99.90;;;;;;7284995;19;20191;-79
2023/05/03 05:13:28;;;;;;;10.60;5.33;;;13.60;99.90;;;;;;7285812;19;20196;-80
2023/05/03 05:15:54;;;;;;;11.37;4.93;;;13.20;99.90;;;;;;7280901;19;20544;-80
2023/05/03 05:18:20;;;;;;;13.87;5.23;;;13.70;99.90;;;;;;7281709;19;20247;-79
2023/05/03 05:20:48;;;;;;;13.23;5.53;;;14.10;99.90;;;;;;7282276;19;20199;-80
2023/05/03 05:23:14;;;;;;;13.20;5.60;;;14.60;99.90;;;;;;7306233;19;20259;-79
2023/05/03 05:25:45;;;;;;;12.50;5.30;;;14.60;99.90;;;;;;7285437;19;20309;-80
2023/05/03 05:28:11;;;;;;;12.57;5.30;;;15.00;99.90;;;;;;7285076;19;20264;-80
2023/05/03 05:30:38;;;;;;;11.27;5.40;;;15.30;99.90;;;;;;7281842;19;20189;-79
2023/05/03 05:33:03;;;;;;;10.73;5.40;;;16.10;99.90;;;;;;7283832;19;20202;-81
2023/05/03 05:35:31;;;;;;;10.77;5.47;;;16.70;99.90;;;;;;7283162;19;20190;-80
2023/05/03 05:37:56;;;;;;;12.97;5.57;;;16.60;99.90;;;;;;7284055;19;20196;-81
2023/05/03 05:40:23;;;;;;;13.10;6.00;;;16.80;99.90;;;;;;7282913;19;20184;-81
2023/05/03 05:42:54;;;;;;;10.50;5.90;;;17.20;99.90;;;;;;7283498;19;20185;-81
2023/05/03 05:45:22;;;;;;;11.53;5.93;;;16.80;99.90;;;;;;7283931;19;20195;-81
2023/05/03 05:47:50;;;;;;;13.90;6.40;;;16.50;99.90;;;;;;7281898;19;20189;-81
2023/05/03 05:50:16;;;;;;;14.80;5.93;;;16.10;99.90;;;;;;7295081;19;20190;-81
2023/05/03 05:52:42;;;;;;;12.83;6.37;;;16.60;99.90;;;;;;7303755;19;20191;-81
2023/05/03 05:55:12;;;;;;;13.63;6.30;;;17.10;99.90;;;;;;7283268;19;20191;-81
2023/05/03 05:57:39;;;;;;;16.97;7.00;;;17.70;99.90;;;;;;7281459;19;20195;-81
2023/05/03 06:00:13;;;;;;;16.43;7.07;;;16.80;99.90;;;;;;7283330;19;20200;-81
2023/05/03 06:02:43;;;;;;;14.07;7.00;;;16.00;99.90;;;;;;7282796;19;20208;-81
2023/05/03 06:05:14;;;;;;;13.60;6.97;;;15.90;99.90;;;;;;7283497;19;20214;-81
2023/05/03 06:07:39;;;;;;;12.73;6.27;;;16.00;99.90;;;;;;7285647;19;20185;-81
2023/05/03 06:10:06;;;;;;;12.87;6.77;;;16.20;99.90;;;;;;7285928;19;20224;-81
2023/05/03 06:12:33;;;;;;;15.70;6.90;;;16.30;99.90;;;;;;7290716;19;20186;-83
2023/05/03 06:14:59;;;;;;;14.63;7.20;;;16.80;99.90;;;;;;7284863;19;20187;-82
2023/05/03 06:17:25;;;;;;;13.40;7.10;;;17.50;99.90;;;;;;7283424;19;20183;-82
2023/05/03 06:19:51;;;;;;;12.80;6.97;;;17.70;99.90;;;;;;7281339;19;20199;-82
2023/05/03 06:22:18;;;;;;;13.47;6.83;;;17.70;99.90;;;;;;7283784;19;20209;-80
2023/05/03 06:24:44;;;;;;;16.27;7.30;;;18.00;99.90;;;;;;7305177;19;20184;-81
2023/05/03 06:27:10;;;;;;;13.37;7.23;;;18.20;99.90;;;;;;7284402;19;20189;-81
2023/05/03 06:29:36;;;;;;;16.67;7.57;;;18.40;99.90;;;;;;7290582;19;20262;-81
2023/05/03 06:32:04;;;;;;;15.17;7.47;;;18.40;99.90;;;;;;7289405;19;20209;-81
2023/05/03 06:34:31;;;;;;;14.10;7.60;;;18.70;99.90;;;;;;7291733;19;20181;-81
2023/05/03 06:36:57;;;;;;;16.77;7.90;;;19.00;99.90;;;;;;7290346;19;20181;-81
2023/05/03 06:39:23;;;;;;;17.43;7.43;;;19.20;99.90;;;;;;7289861;19;20687;-81
2023/05/03 06:41:49;;;;;;;18.77;8.40;;;19.00;99.90;;;;;;7290279;19;20264;-82
2023/05/03 06:44:16;;;;;;;15.33;8.30;;;18.70;99.90;;;;;;7303008;19;20207;-81
2023/05/03 06:46:45;;;;;;;14.70;7.73;;;18.70;99.90;;;;;;7311175;19;20199;-82
2023/05/03 06:49:10;;;;;;;14.20;8.57;;;19.20;99.90;;;;;;7288832;19;20674;-82
2023/05/03 06:51:36;;;;;;;17.67;8.40;;;19.90;99.90;;;;;;7291208;19;20669;-82
2023/05/03 06:54:05;;;;;;;17.70;8.80;;;20.50;99.90;;;;;;7288998;19;20244;-81
2023/05/03 06:56:35;;;;;;;19.67;8.70;;;21.10;99.90;;;;;;7289608;19;20554;-82
2023/05/03 06:59:02;;;;;;;15.73;8.70;;;21.50;99.90;;;;;;7289188;19;20199;-81
2023/05/03 07:01:29;;;;;;;15.07;8.20;;;21.70;98.70;;;;;;7290303;19;20192;-82
2023/05/03 07:03:54;;;;;;;14.87;8.63;;;21.50;97.70;;;;;;7288075;19;20185;-82
2023/05/03 07:06:22;;;;;;;17.97;8.60;;;21.30;97.00;;;;;;7289564;19;20207;-81
2023/05/03 07:08:52;;;;;;;14.57;8.47;;;21.40;97.00;;;;;;7290534;19;20183;-80
2023/05/03 07:11:22;;;;;;;18.97;9.27;;;21.80;95.30;;;;;;7291197;19;20196;-81
2023/05/03 07:13:52;;;;;;;17.20;9.27;;;20.70;95.20;;;;;;7289809;19;20202;-80
2023/05/03 07:16:19;;;;;;;15.63;8.97;;;20.70;96.20;;;;;;7287625;19;20195;-80
2023/05/03 07:18:45;;;;;;;14.67;8.97;;;20.20;96.20;;;;;;7312428;19;20195;-82
2023/05/03 07:21:12;;;;;;;16.73;8.50;;;19.80;97.10;;;;;;7290182;19;20198;-82
2023/05/03 07:23:38;;;;;;;18.17;8.60;;;20.40;96.80;;;;;;7289509;19;20195;-82
2023/05/03 07:26:04;;;;;;;20.07;8.97;;;21.60;95.40;;;;;;7288330;19;20214;-82
2023/05/03 07:28:30;;;;;;;16.07;9.23;;;22.30;94.90;;;;;;7288982;19;20650;-81
2023/05/03 07:30:56;;;;;;;15.50;8.40;;;22.20;93.30;;;;;;7288777;19;20192;-82
2023/05/03 07:33:21;;;;;;;19.87;9.60;;;22.50;93.40;;;;;;7290863;19;20632;-82
2023/05/03 07:35:47;;;;;;;15.00;8.30;;;22.90;91.10;;;;;;7295878;19;20199;-81
2023/05/03 07:38:14;;;;;;;17.10;8.40;;;23.20;91.80;;;;;;7310645;19;20192;-82
2023/05/03 07:40:40;;;;;;;19.57;8.87;;;22.20;91.00;;;;;;7289376;19;20640;-83
2023/05/03 07:43:08;;;;;;;16.67;8.70;;;22.20;90.90;;;;;;7288388;19;20582;-82
2023/05/03 07:45:37;;;;;;;17.73;8.87;;;22.20;91.90;;;;;;7288297;19;20229;-82
2023/05/03 07:48:05;;;;;;;16.97;9.00;;;22.00;90.90;;;;;;7287851;19;20251;-82
2023/05/03 07:50:31;;;;;;;18.87;8.97;;;21.80;91.00;;;;;;7287695;19;20221;-82
2023/05/03 07:52:57;;;;;;;18.47;8.47;;;21.50;91.60;;;;;;7288712;19;20194;-82
2023/05/03 07:55:24;;;;;;;19.10;9.43;;;22.10;90.70;;;;;;7286957;19;20644;-82
2023/05/03 07:57:50;;;;;;;18.33;9.13;;;22.50;90.80;;;;;;7287750;19;20196;-82
2023/05/03 08:00:16;;;;;;;17.80;10.10;;;22.40;88.40;;;;;;7305341;19;20219;-81
2023/05/03 08:02:42;;;;;;;19.10;9.03;;;21.30;90.50;;;;;;7299964;19;20194;-82
2023/05/03 08:05:13;;;;;;;15.53;8.90;;;21.80;91.60;;;;;;7286149;19;20193;-82
2023/05/03 08:07:39;;;;;;;15.63;9.27;;;23.60;90.10;;;;;;7284974;19;20196;-82
2023/05/03 08:10:06;;;;;;;16.63;9.33;;;23.00;85.60;;;;;;7288108;19;20195;-82
2023/05/03 08:12:32;;;;;;;20.63;9.87;;;23.10;87.80;;;;;;7288109;19;20675;-82
2023/05/03 08:14:57;;;;;;;20.27;9.80;;;22.90;87.20;;;;;;7287473;19;20267;-82
2023/05/03 08:17:23;;;;;;;17.83;9.60;;;23.60;85.30;;;;;;7285095;19;20185;-82
2023/05/03 08:19:49;;;;;;;18.93;9.90;;;23.70;82.30;;;;;;7286396;19;20197;-81
2023/05/03 08:22:15;;;;;;;16.47;9.50;;;23.30;82.10;;;;;;7308633;19;20329;-83
2023/05/03 08:24:42;;;;;;;19.13;9.70;;;24.20;83.50;;;;;;7286361;19;20185;-82
2023/05/03 08:27:09;;;;;;;16.17;9.97;;;25.20;79.40;;;;;;7286658;19;20195;-82
2023/05/03 08:29:37;;;;;;;19.53;10.67;;;24.80;76.90;;;;;;7285986;19;20192;-81
2023/05/03 08:32:04;;;;;;;22.97;11.40;;;24.40;75.90;;;;;;7286424;19;20216;-81
2023/05/03 08:34:31;;;;;;;19.63;11.13;;;23.50;76.00;;;;;;7286651;19;20197;-82
2023/05/03 08:36:56;;;;;;;17.10;10.00;;;23.90;76.10;;;;;;7285921;19;20211;-82
2023/05/03 08:39:26;;;;;;;18.83;11.57;;;24.30;77.40;;;;;;7286720;19;20547;-82
2023/05/03 08:41:53;;;;;;;17.60;10.67;;;24.60;73.20;;;;;;7285000;19;20193;-83
2023/05/03 08:44:24;;;;;;;16.27;10.57;;;23.60;73.60;;;;;;7285886;19;20290;-82
2023/05/03 08:46:53;;;;;;;18.53;10.90;;;23.60;76.00;;;;;;7285588;19;20644;-83
2023/05/03 08:49:20;;;;;;;16.90;10.43;;;23.20;75.10;;;;;;7285140;19;20248;-83
2023/05/03 08:51:48;;;;;;;17.00;10.73;;;22.10;77.00;;;;;;7307878;19;20226;-83
2023/05/03 08:54:19;;;;;;;21.60;10.97;;;22.00;76.00;;;;;;7287405;19;20533;-83
2023/05/03 08:56:46;;;;;;;18.70;10.80;;;22.10;77.30;;;;;;7286760;19;20195;-85
2023/05/03 08:59:15;;;;;;;20.10;10.90;;;22.10;77.90;;;;;;7286400;19;20180;-84
2023/05/03 09:01:42;;;;;;;19.00;10.53;;;22.50;79.90;;;;;;7287905;19;20659;-83
2023/05/03 09:04:09;;;;;;;19.10;11.00;;;23.20;74.70;;;;;;7285862;19;20616;-83
2023/05/03 09:06:36;;;;;;;20.67;10.13;;;21.90;75.80;;;;;;7286961;19;20188;-83
2023/05/03 09:09:06;;;;;;;17.93;9.33;;;21.80;75.30;;;;;;7286408;19;20193;-83
2023/05/03 09:11:33;;;;;;;19.10;9.80;;;21.80;77.30;;;;;;7285999;19;20572;-83
2023/05/03 09:14:16;;;;;;;16.83;9.83;;;23.10;76.20;;;;;;7287051;19;20248;-83
2023/05/03 09:16:44;;;;;;;18.73;9.93;;;23.40;71.80;;;;;;7286958;19;20602;-83
2023/05/03 09:19:13;;;;;;;15.93;9.37;;;23.50;73.90;;;;;;7286917;19;20189;-84
2023/05/03 09:21:41;;;;;;;17.50;10.00;;;23.90;70.70;;;;;;7286563;19;20193;-83
2023/05/03 09:24:14;;;;;;;19.13;10.40;;;23.90;70.70;;;;;;7285355;19;20527;-84
2023/05/03 09:26:41;;;;;;;18.37;9.53;;;23.80;72.30;;;;;;7285062;19;20181;-84
2023/05/03 09:29:07;;;;;;;17.83;9.60;;;23.90;70.50;;;;;;7284764;19;20397;-82
2023/05/03 09:31:35;;;;;;;16.87;9.40;;;24.80;70.40;;;;;;7284534;19;20188;-82
2023/05/03 09:34:21;;;;;;;17.40;9.23;;;24.60;69.30;;;;;;7285862;19;20201;-83
2023/05/03 09:36:47;;;;;;;31.53;11.07;;;24.60;68.50;;;;;;7278900;19;20185;-82
2023/05/03 09:39:17;;;;;;;17.80;10.13;;;24.70;68.10;;;;;;7299325;19;20188;-83
2023/05/03 09:41:43;;;;;;;27.25;10.85;;;24.60;67.00;;;;;;7283882;19;20185;-83
2023/05/03 09:44:09;;;;;;;18.10;9.73;;;24.40;68.00;;;;;;7285493;19;20188;-84
2023/05/03 09:46:36;;;;;;;19.83;10.27;;;24.10;70.00;;;;;;7284937;19;20192;-83
2023/05/03 09:49:03;;;;;;;17.73;10.00;;;24.60;68.30;;;;;;7284519;19;20184;-83
2023/05/03 09:51:31;;;;;;;19.17;9.47;;;24.60;67.70;;;;;;7283774;19;20215;-82
2023/05/03 09:53:57;;;;;;;18.77;9.93;;;24.50;67.60;;;;;;7288923;19;20752;-83
2023/05/03 09:56:27;;;;;;;15.27;8.87;;;24.30;65.50;;;;;;7291158;19;20177;-82
2023/05/03 09:58:53;;;;;;;24.73;10.20;;;24.10;68.30;;;;;;7307793;19;20189;-84
2023/05/03 10:01:22;;;;;;;16.77;9.10;;;23.80;66.30;;;;;;7314527;19;20185;-79
2023/05/03 10:03:49;;;;;;;17.47;9.53;;;24.10;67.90;;;;;;7306379;19;20214;-82
2023/05/03 10:06:22;;;;;;;22.97;10.77;;;23.10;68.00;;;;;;7315954;19;20200;-82
2023/05/03 10:09:15;;;;;;;21.13;10.80;;;23.00;69.30;;;;;;7282318;19;20261;-82
2023/05/03 10:11:58;;;;;;;17.73;10.17;;;23.80;69.60;;;;;;7292758;19;20196;-82
2023/05/03 10:14:23;;;;;;;15.63;10.23;;;23.20;66.20;;;;;;7188448;19;2004607;-82
2023/05/03 10:16:52;;;;;;;19.57;10.80;;;22.50;70.60;;;;;;7290745;19;20549;-82
2023/05/03 10:19:34;;;;;;;15.53;9.50;;;22.40;70.50;;;;;;7297488;19;20193;-81
2023/05/03 10:22:08;;;;;;;21.83;10.77;;;22.50;70.30;;;;;;7292363;19;20193;-82
2023/05/03 10:24:35;;;;;;;17.90;9.83;;;22.90;71.10;;;;;;7300238;19;20204;-82
2023/05/03 10:27:01;;;;;;;18.57;9.60;;;23.00;70.80;;;;;;7294638;19;20712;-82
2023/05/03 10:29:33;;;;;;;17.93;10.47;;;22.50;70.20;;;;;;7297143;19;20528;-82
2023/05/03 10:32:00;;;;;;;15.33;10.40;;;22.90;70.60;;;;;;7290389;19;20196;-82
2023/05/03 10:34:33;;;;;;;23.47;11.70;;;23.50;71.20;;;;;;7291511;19;20214;-82
2023/05/03 10:37:07;;;;;;;19.13;10.03;;;23.70;69.30;;;;;;7290346;19;20222;-81
2023/05/03 10:39:33;;;;;;;19.33;9.77;;;24.40;69.00;;;;;;7289820;19;20193;-81
2023/05/03 10:42:02;;;;;;;16.10;9.30;;;24.10;71.20;;;;;;7290035;19;20225;-81
2023/05/03 10:44:37;;;;;;;14.53;9.60;;;24.10;66.90;;;;;;7290230;19;20192;-82
2023/05/03 10:47:17;;;;;;;15.37;9.30;;;24.60;67.00;;;;;;7292199;19;20207;-81
2023/05/03 10:49:44;;;;;;;13.00;8.80;;;24.10;64.40;;;;;;7290289;19;20201;-81
2023/05/03 10:52:35;;;;;;;15.07;7.90;;;24.40;63.60;;;;;;7290692;19;20193;-82
2023/05/03 10:55:01;;;;;;;15.47;9.30;;;24.90;63.70;;;;;;7188588;19;2005021;-83
2023/05/03 10:57:31;;;;;;;16.53;9.40;;;24.90;64.80;;;;;;7290192;19;20193;-81
2023/05/03 10:59:58;;;;;;;16.30;8.32;;;24.80;63.70;;;;;;7291269;19;20192;-81
2023/05/03 11:02:32;;;;;;;15.20;9.30;;;25.00;63.20;;;;;;7291113;19;20193;-81
2023/05/03 11:05:04;;;;;;;15.83;8.50;;;24.10;61.90;;;;;;7290328;19;20188;-81
2023/05/03 11:07:30;;;;;;;15.23;8.50;;;23.50;61.70;;;;;;7291624;19;20260;-81
2023/05/03 11:09:56;;;;;;;16.33;9.87;;;23.60;63.70;;;;;;7289430;19;20196;-81
2023/05/03 11:12:22;;;;;;;17.20;9.77;;;24.10;62.80;;;;;;7289298;19;20256;-82
2023/05/03 11:14:51;;;;;;;16.53;9.37;;;23.90;63.00;;;;;;7297353;19;20221;-81
2023/05/03 11:17:16;;;;;;;16.27;9.50;;;23.90;65.30;;;;;;7311028;19;20196;-82
2023/05/03 11:19:43;;;;;;;18.77;9.97;;;23.80;67.20;;;;;;7290192;19;20972;-82
2023/05/03 11:22:11;;;;;;;18.63;9.33;;;24.10;63.60;;;;;;7289723;19;20205;-82
2023/05/03 11:24:37;;;;;;;17.23;9.03;;;24.10;64.80;;;;;;7288885;19;20315;-82
2023/05/03 11:27:03;;;;;;;15.87;8.37;;;24.10;61.60;;;;;;7289038;19;20201;-82
2023/05/03 11:29:30;;;;;;;15.63;8.77;;;24.30;61.70;;;;;;7290518;19;20212;-82
2023/05/03 11:31:56;;;;;;;15.87;9.10;;;24.30;63.00;;;;;;7288486;19;20193;-82
2023/05/03 11:34:22;;;;;;;15.27;9.20;;;24.60;61.40;;;;;;7287780;19;20199;-81
2023/05/03 11:36:48;;;;;;;15.33;9.00;;;25.00;60.70;;;;;;7293556;19;20192;-81
2023/05/03 11:39:14;;;;;;;16.38;8.43;;;24.10;59.60;;;;;;7311025;19;20177;-82
2023/05/03 11:41:43;;;;;;;15.73;8.70;;;24.00;61.50;;;;;;7289011;19;20676;-82
2023/05/03 11:44:08;;;;;;;17.80;9.33;;;23.90;60.00;;;;;;7289904;19;20183;-82
2023/05/03 11:46:36;;;;;;;15.77;9.60;;;23.20;62.70;;;;;;7291640;19;20199;-82
2023/05/03 11:49:02;;;;;;;22.07;9.73;;;23.30;62.50;;;;;;7288628;19;20549;-82
2023/05/03 11:51:28;;;;;;;21.27;9.80;;;23.60;63.90;;;;;;7290079;19;20188;-81
2023/05/03 11:53:55;;;;;;;15.67;9.03;;;22.70;65.20;;;;;;7289336;19;20213;-82
2023/05/03 11:56:21;;;;;;;17.23;9.33;;;23.20;66.70;;;;;;7292296;19;20192;-81
2023/05/03 11:58:57;;;;;;;17.60;10.10;;;23.60;66.70;;;;;;7315489;19;20188;-78
2023/05/03 12:01:25;;;;;;;27.43;11.10;;;23.50;66.20;;;;;;7295615;19;20221;-82
2023/05/03 12:03:59;;;;;;;18.50;9.70;;;23.30;66.20;;;;;;7292705;19;20185;-82
2023/05/03 12:06:27;;;;;;;14.93;9.33;;;23.10;66.60;;;;;;7289223;19;20205;-82
2023/05/03 12:08:53;;;;;;;13.53;8.63;;;23.10;68.10;;;;;;7288357;19;20187;-81
2023/05/03 12:11:20;;;;;;;18.37;9.83;;;23.30;67.80;;;;;;7287673;19;20192;-82
2023/05/03 12:13:57;;;;;;;27.13;10.97;;;22.80;65.30;;;;;;7312273;19;20213;-83
2023/05/03 12:16:23;;;;;;;15.23;10.00;;;22.50;66.70;;;;;;7186421;19;2004574;-82
2023/05/03 12:19:01;;;;;;;16.60;9.20;;;22.20;67.60;;;;;;7294619;19;20201;-82
2023/05/03 12:21:46;;;;;;;17.00;9.47;;;21.80;69.20;;;;;;7286573;19;20196;-82
2023/05/03 12:24:16;;;;;;;28.70;10.70;;;21.00;67.90;;;;;;7287715;19;20223;-82
2023/05/03 12:26:43;;;;;;;31.23;12.23;;;20.70;70.70;;;;;;7287838;19;20199;-82
2023/05/03 12:29:09;;;;;;;15.33;9.50;;;20.20;71.30;;;;;;7287276;19;20187;-82
2023/05/03 12:31:36;;;;;;;20.07;10.90;;;19.90;71.80;;;;;;7287955;19;20696;-82
2023/05/03 12:34:03;;;;;;;29.20;11.03;;;19.70;73.40;;;;;;7285672;19;20224;-83
2023/05/03 12:36:31;;;;;;;16.90;9.97;;;19.50;73.20;;;;;;7284102;19;20203;-82
2023/05/03 12:38:58;;;;;;;20.30;10.87;;;19.60;74.50;;;;;;7288161;19;20192;-81
2023/05/03 12:41:26;;;;;;;17.40;10.43;;;19.20;74.10;;;;;;7285666;19;20197;-82